sensor_id;sensor_type;location;lat;lon;timestamp;pressure;altitude;pressure_sealevel;temperature;humidity
20630;BME280;17386;43.846;25.950;2022-11-23T00:01:30;100208.69;;;10.51;100.00
20630;BME280;17386;43.846;25.950;2022-11-23T00:03:59;100205.19;;;10.51;100.00
20630;BME280;17386;43.846;25.950;2022-11-23T00:06:25;100211.47;;;10.48;100.00
20630;BME280;17386;43.846;25.950;2022-11-23T00:08:51;100206.03;;;10.51;100.00
20630;BME280;17386;43.846;25.950;2022-11-23T00:11:17;100191.41;;;10.41;100.00
20630;BME280;17386;43.846;25.950;2022-11-23T00:13:44;100196.81;;;10.39;100.00
20630;BME280;17386;43.846;25.950;2022-11-23T00:16:20;100203.97;;;10.37;100.00
20630;BME280;17386;43.846;25.950;2022-11-23T00:18:46;100194.66;;;10.48;100.00
20630;BME280;17386;43.846;25.950;2022-11-23T00:21:16;100192.88;;;10.48;100.00
20630;BME280;17386;43.846;25.950;2022-11-23T00:23:42;100190.88;;;10.53;100.00
20630;BME280;17386;43.846;25.950;2022-11-23T00:26:08;100186.44;;;10.54;100.00
20630;BME280;17386;43.846;25.950;2022-11-23T00:28:34;100181.00;;;10.57;100.00
20630;BME280;17386;43.846;25.950;2022-11-23T00:31:03;100176.59;;;10.56;100.00
20630;BME280;17386;43.846;25.950;2022-11-23T00:33:29;100178.75;;;10.48;100.00
20630;BME280;17386;43.846;25.950;2022-11-23T00:35:59;100170.91;;;10.45;100.00
20630;BME280;17386;43.846;25.950;2022-11-23T00:38:24;100175.22;;;10.47;100.00
20630;BME280;17386;43.846;25.950;2022-11-23T00:40:57;100177.59;;;10.53;100.00
20630;BME280;17386;43.846;25.950;2022-11-23T00:43:22;100176.88;;;10.50;100.00
20630;BME280;17386;43.846;25.950;2022-11-23T00:45:48;100172.66;;;10.46;100.00
20630;BME280;17386;43.846;25.950;2022-11-23T00:48:15;100178.16;;;10.41;100.00
20630;BME280;17386;43.846;25.950;2022-11-23T00:50:40;100171.03;;;10.41;100.00
20630;BME280;17386;43.846;25.950;2022-11-23T00:53:05;100174.44;;;10.45;100.00
20630;BME280;17386;43.846;25.950;2022-11-23T00:55:31;100164.53;;;10.49;100.00
20630;BME280;17386;43.846;25.950;2022-11-23T00:57:57;100177.41;;;10.58;100.00
20630;BME280;17386;43.846;25.950;2022-11-23T01:00:22;100176.25;;;10.63;100.00
20630;BME280;17386;43.846;25.950;2022-11-23T01:02:47;100172.63;;;10.66;100.00
20630;BME280;17386;43.846;25.950;2022-11-23T01:05:13;100172.41;;;10.71;100.00
20630;BME280;17386;43.846;25.950;2022-11-23T01:07:38;100168.59;;;10.76;100.00
20630;BME280;17386;43.846;25.950;2022-11-23T01:10:04;100162.34;;;10.77;100.00
20630;BME280;17386;43.846;25.950;2022-11-23T01:12:30;100154.34;;;10.79;100.00
20630;BME280;17386;43.846;25.950;2022-11-23T01:14:55;100146.41;;;10.77;100.00
20630;BME280;17386;43.846;25.950;2022-11-23T01:17:21;100140.22;;;10.77;100.00
20630;BME280;17386;43.846;25.950;2022-11-23T01:19:46;100127.03;;;10.75;100.00
20630;BME280;17386;43.846;25.950;2022-11-23T01:22:11;100129.59;;;10.77;100.00
20630;BME280;17386;43.846;25.950;2022-11-23T01:24:37;100123.59;;;10.73;100.00
20630;BME280;17386;43.846;25.950;2022-11-23T01:27:02;100109.53;;;10.71;100.00
20630;BME280;17386;43.846;25.950;2022-11-23T01:29:28;100100.13;;;10.64;100.00
20630;BME280;17386;43.846;25.950;2022-11-23T01:31:53;100106.00;;;10.71;100.00
20630;BME280;17386;43.846;25.950;2022-11-23T01:34:18;100084.97;;;10.66;100.00
20630;BME280;17386;43.846;25.950;2022-11-23T01:36:44;100099.81;;;10.70;100.00
20630;BME280;17386;43.846;25.950;2022-11-23T01:39:10;100092.06;;;10.65;100.00
20630;BME280;17386;43.846;25.950;2022-11-23T01:41:38;100091.91;;;10.68;100.00
20630;BME280;17386;43.846;25.950;2022-11-23T01:44:31;100102.25;;;10.75;100.00
20630;BME280;17386;43.846;25.950;2022-11-23T01:46:59;100101.47;;;10.73;100.00
20630;BME280;17386;43.846;25.950;2022-11-23T01:49:29;100090.28;;;10.66;100.00
20630;BME280;17386;43.846;25.950;2022-11-23T01:51:58;100089.19;;;10.70;100.00
20630;BME280;17386;43.846;25.950;2022-11-23T01:54:38;100095.03;;;10.78;100.00
20630;BME280;17386;43.846;25.950;2022-11-23T01:57:27;100081.66;;;10.80;100.00
20630;BME280;17386;43.846;25.950;2022-11-23T01:59:54;100083.47;;;10.79;100.00
20630;BME280;17386;43.846;25.950;2022-11-23T02:02:20;100074.56;;;10.80;100.00
20630;BME280;17386;43.846;25.950;2022-11-23T02:04:48;100069.38;;;10.77;100.00
20630;BME280;17386;43.846;25.950;2022-11-23T02:07:17;100073.13;;;10.73;100.00
20630;BME280;17386;43.846;25.950;2022-11-23T02:09:44;100073.25;;;10.70;100.00
20630;BME280;17386;43.846;25.950;2022-11-23T02:12:11;100076.63;;;10.74;100.00
20630;BME280;17386;43.846;25.950;2022-11-23T02:14:37;100069.44;;;10.76;100.00
20630;BME280;17386;43.846;25.950;2022-11-23T02:17:03;100057.91;;;10.58;100.00
20630;BME280;17386;43.846;25.950;2022-11-23T02:20:04;100051.06;;;10.52;100.00
20630;BME280;17386;43.846;25.950;2022-11-23T02:25:28;100053.09;;;10.66;100.00
20630;BME280;17386;43.846;25.950;2022-11-23T02:27:57;100036.94;;;10.71;100.00
20630;BME280;17386;43.846;25.950;2022-11-23T02:30:23;100039.28;;;10.77;100.00
20630;BME280;17386;43.846;25.950;2022-11-23T02:32:48;100036.50;;;10.80;100.00
20630;BME280;17386;43.846;25.950;2022-11-23T02:35:14;100015.53;;;10.74;100.00
20630;BME280;17386;43.846;25.950;2022-11-23T02:37:40;100024.94;;;10.81;100.00
20630;BME280;17386;43.846;25.950;2022-11-23T02:40:15;100023.78;;;10.86;100.00
20630;BME280;17386;43.846;25.950;2022-11-23T02:42:43;100025.50;;;10.87;100.00
20630;BME280;17386;43.846;25.950;2022-11-23T02:47:41;100011.28;;;10.88;100.00
20630;BME280;17386;43.846;25.950;2022-11-23T02:50:06;100009.47;;;10.89;100.00
20630;BME280;17386;43.846;25.950;2022-11-23T02:52:32;100010.50;;;10.86;100.00
20630;BME280;17386;43.846;25.950;2022-11-23T02:54:57;100022.94;;;10.86;100.00
20630;BME280;17386;43.846;25.950;2022-11-23T02:57:23;100023.78;;;10.86;100.00
20630;BME280;17386;43.846;25.950;2022-11-23T02:59:48;100018.69;;;10.82;100.00
20630;BME280;17386;43.846;25.950;2022-11-23T03:02:13;100021.22;;;10.85;100.00
20630;BME280;17386;43.846;25.950;2022-11-23T03:04:39;100039.28;;;10.95;100.00
20630;BME280;17386;43.846;25.950;2022-11-23T03:07:04;100035.06;;;10.91;100.00
20630;BME280;17386;43.846;25.950;2022-11-23T03:09:30;100034.81;;;10.96;100.00
20630;BME280;17386;43.846;25.950;2022-11-23T03:11:56;100022.94;;;10.86;100.00
20630;BME280;17386;43.846;25.950;2022-11-23T03:14:21;100023.50;;;10.92;100.00
20630;BME280;17386;43.846;25.950;2022-11-23T03:16:47;100017.31;;;10.92;100.00
20630;BME280;17386;43.846;25.950;2022-11-23T03:19:12;100018.09;;;10.94;100.00
20630;BME280;17386;43.846;25.950;2022-11-23T03:21:38;100011.13;;;10.91;100.00
20630;BME280;17386;43.846;25.950;2022-11-23T03:24:03;100011.91;;;10.93;100.00
20630;BME280;17386;43.846;25.950;2022-11-23T03:26:29;100007.53;;;10.92;100.00
20630;BME280;17386;43.846;25.950;2022-11-23T03:28:54;100013.22;;;10.85;100.00
20630;BME280;17386;43.846;25.950;2022-11-23T03:31:20;100013.00;;;10.89;100.00
20630;BME280;17386;43.846;25.950;2022-11-23T03:33:45;100015.50;;;10.92;100.00
20630;BME280;17386;43.846;25.950;2022-11-23T03:36:11;100018.72;;;10.99;100.00
20630;BME280;17386;43.846;25.950;2022-11-23T03:38:36;100010.50;;;11.04;100.00
20630;BME280;17386;43.846;25.950;2022-11-23T03:41:01;100009.38;;;11.09;100.00
20630;BME280;17386;43.846;25.950;2022-11-23T03:43:27;100004.78;;;11.13;100.00
20630;BME280;17386;43.846;25.950;2022-11-23T03:45:52;100008.13;;;11.16;100.00
20630;BME280;17386;43.846;25.950;2022-11-23T03:48:18;100007.13;;;11.19;100.00
20630;BME280;17386;43.846;25.950;2022-11-23T03:50:43;100004.47;;;11.19;100.00
20630;BME280;17386;43.846;25.950;2022-11-23T03:53:09;100000.88;;;11.20;100.00
20630;BME280;17386;43.846;25.950;2022-11-23T03:55:35;99994.44;;;11.24;100.00
20630;BME280;17386;43.846;25.950;2022-11-23T03:58:00;99993.75;;;11.20;100.00
20630;BME280;17386;43.846;25.950;2022-11-23T04:00:27;99981.41;;;11.19;100.00
20630;BME280;17386;43.846;25.950;2022-11-23T04:02:54;99985.69;;;11.22;100.00
20630;BME280;17386;43.846;25.950;2022-11-23T04:05:19;99982.00;;;11.24;100.00
20630;BME280;17386;43.846;25.950;2022-11-23T04:07:46;99969.56;;;11.25;100.00
20630;BME280;17386;43.846;25.950;2022-11-23T04:10:14;99973.72;;;11.31;100.00
20630;BME280;17386;43.846;25.950;2022-11-23T04:12:39;99982.50;;;11.33;100.00
20630;BME280;17386;43.846;25.950;2022-11-23T04:15:05;99975.38;;;11.33;100.00
20630;BME280;17386;43.846;25.950;2022-11-23T04:17:31;99988.59;;;11.35;100.00
20630;BME280;17386;43.846;25.950;2022-11-23T04:19:56;99969.75;;;11.39;100.00
20630;BME280;17386;43.846;25.950;2022-11-23T04:22:21;99971.16;;;11.46;100.00
20630;BME280;17386;43.846;25.950;2022-11-23T04:24:47;99964.81;;;11.49;100.00
20630;BME280;17386;43.846;25.950;2022-11-23T04:27:12;99955.97;;;11.48;100.00
20630;BME280;17386;43.846;25.950;2022-11-23T04:29:37;99969.91;;;11.54;100.00
20630;BME280;17386;43.846;25.950;2022-11-23T04:32:03;99975.13;;;11.55;100.00
20630;BME280;17386;43.846;25.950;2022-11-23T04:34:28;99975.13;;;11.55;100.00
20630;BME280;17386;43.846;25.950;2022-11-23T04:36:54;99966.31;;;11.55;100.00
20630;BME280;17386;43.846;25.950;2022-11-23T04:39:19;99971.53;;;11.56;100.00
20630;BME280;17386;43.846;25.950;2022-11-23T04:41:44;99975.13;;;11.55;100.00
20630;BME280;17386;43.846;25.950;2022-11-23T04:44:10;99973.47;;;11.52;100.00
20630;BME280;17386;43.846;25.950;2022-11-23T04:46:35;99978.75;;;11.54;100.00
20630;BME280;17386;43.846;25.950;2022-11-23T04:49:00;99968.50;;;11.46;100.00
20630;BME280;17386;43.846;25.950;2022-11-23T04:51:26;99980.59;;;11.52;100.00
20630;BME280;17386;43.846;25.950;2022-11-23T04:53:51;99976.94;;;11.55;100.00
20630;BME280;17386;43.846;25.950;2022-11-23T04:56:16;99973.41;;;11.54;100.00
20630;BME280;17386;43.846;25.950;2022-11-23T04:58:42;99982.19;;;11.56;100.00
20630;BME280;17386;43.846;25.950;2022-11-23T05:01:07;99984.84;;;11.56;100.00
20630;BME280;17386;43.846;25.950;2022-11-23T05:03:33;99978.75;;;11.54;100.00
20630;BME280;17386;43.846;25.950;2022-11-23T05:06:02;99976.84;;;11.56;100.00
20630;BME280;17386;43.846;25.950;2022-11-23T05:08:28;99968.09;;;11.54;100.00
20630;BME280;17386;43.846;25.950;2022-11-23T05:10:54;99975.91;;;11.57;100.00
20630;BME280;17386;43.846;25.950;2022-11-23T05:13:19;99975.06;;;11.57;100.00
20630;BME280;17386;43.846;25.950;2022-11-23T05:15:45;99972.38;;;11.57;100.00
20630;BME280;17386;43.846;25.950;2022-11-23T05:18:11;99978.56;;;11.57;100.00
20630;BME280;17386;43.846;25.950;2022-11-23T05:20:36;99972.47;;;11.55;100.00
20630;BME280;17386;43.846;25.950;2022-11-23T05:23:02;99976.69;;;11.59;100.00
20630;BME280;17386;43.846;25.950;2022-11-23T05:25:28;99965.19;;;11.59;100.00
20630;BME280;17386;43.846;25.950;2022-11-23T05:27:53;99970.44;;;11.60;100.00
20630;BME280;17386;43.846;25.950;2022-11-23T05:30:19;99970.44;;;11.60;100.00
20630;BME280;17386;43.846;25.950;2022-11-23T05:32:44;99970.59;;;11.57;100.00
20630;BME280;17386;43.846;25.950;2022-11-23T05:35:10;99965.19;;;11.59;100.00
20630;BME280;17386;43.846;25.950;2022-11-23T05:37:37;99972.31;;;11.58;100.00
20630;BME280;17386;43.846;25.950;2022-11-23T05:40:03;99973.16;;;11.59;100.00
20630;BME280;17386;43.846;25.950;2022-11-23T05:42:29;99963.38;;;11.59;100.00
20630;BME280;17386;43.846;25.950;2022-11-23T05:44:54;99970.50;;;11.59;100.00
20630;BME280;17386;43.846;25.950;2022-11-23T05:47:19;99972.31;;;11.58;100.00
20630;BME280;17386;43.846;25.950;2022-11-23T05:49:45;99974.97;;;11.58;100.00
20630;BME280;17386;43.846;25.950;2022-11-23T05:52:10;99973.97;;;11.61;100.00
20630;BME280;17386;43.846;25.950;2022-11-23T05:54:36;99979.03;;;11.65;100.00
20630;BME280;17386;43.846;25.950;2022-11-23T05:57:01;99977.22;;;11.66;100.00
20630;BME280;17386;43.846;25.950;2022-11-23T05:59:26;99980.50;;;11.71;100.00
20630;BME280;17386;43.846;25.950;2022-11-23T06:01:52;99974.41;;;11.69;100.00
20630;BME280;17386;43.846;25.950;2022-11-23T06:04:17;99966.59;;;11.66;100.00
20630;BME280;17386;43.846;25.950;2022-11-23T06:06:43;99970.63;;;11.73;100.00
20630;BME280;17386;43.846;25.950;2022-11-23T06:09:08;99974.34;;;11.70;100.00
20630;BME280;17386;43.846;25.950;2022-11-23T06:11:33;99970.81;;;11.70;100.00
20630;BME280;17386;43.846;25.950;2022-11-23T06:14:00;99970.91;;;11.68;100.00
20630;BME280;17386;43.846;25.950;2022-11-23T06:16:25;99984.97;;;11.70;100.00
20630;BME280;17386;43.846;25.950;2022-11-23T06:18:50;99987.94;;;11.64;100.00
20630;BME280;17386;43.846;25.950;2022-11-23T06:21:16;99986.47;;;11.59;100.00
20630;BME280;17386;43.846;25.950;2022-11-23T06:23:42;99992.41;;;11.64;100.00
20630;BME280;17386;43.846;25.950;2022-11-23T06:26:08;99990.53;;;11.66;100.00
20630;BME280;17386;43.846;25.950;2022-11-23T06:28:33;100002.66;;;11.71;100.00
20630;BME280;17386;43.846;25.950;2022-11-23T06:31:02;100001.66;;;11.74;100.00
20630;BME280;17386;43.846;25.950;2022-11-23T06:33:28;100004.63;;;11.68;100.00
20630;BME280;17386;43.846;25.950;2022-11-23T06:35:58;100000.94;;;11.70;100.00
20630;BME280;17386;43.846;25.950;2022-11-23T06:38:24;100005.19;;;11.74;100.00
20630;BME280;17386;43.846;25.950;2022-11-23T06:40:50;99994.38;;;11.60;100.00
20630;BME280;17386;43.846;25.950;2022-11-23T06:43:15;100000.56;;;11.61;100.00
20630;BME280;17386;43.846;25.950;2022-11-23T06:45:41;99994.53;;;11.57;100.00
20630;BME280;17386;43.846;25.950;2022-11-23T06:48:06;100001.47;;;11.60;100.00
20630;BME280;17386;43.846;25.950;2022-11-23T06:50:32;100001.47;;;11.60;100.00
20630;BME280;17386;43.846;25.950;2022-11-23T06:52:57;99999.72;;;11.60;100.00
20630;BME280;17386;43.846;25.950;2022-11-23T06:55:23;100000.63;;;11.59;100.00
20630;BME280;17386;43.846;25.950;2022-11-23T06:57:49;99999.63;;;11.62;100.00
20630;BME280;17386;43.846;25.950;2022-11-23T07:00:15;99997.34;;;11.54;100.00
20630;BME280;17386;43.846;25.950;2022-11-23T07:02:41;99995.16;;;11.62;100.00
20630;BME280;17386;43.846;25.950;2022-11-23T07:05:07;99990.38;;;11.69;100.00
20630;BME280;17386;43.846;25.950;2022-11-23T07:07:32;99985.84;;;11.71;100.00
20630;BME280;17386;43.846;25.950;2022-11-23T07:09:58;99979.41;;;11.75;100.00
20630;BME280;17386;43.846;25.950;2022-11-23T07:12:23;99975.72;;;11.77;100.00
20630;BME280;17386;43.846;25.950;2022-11-23T07:14:49;99969.34;;;11.82;100.00
20630;BME280;17386;43.846;25.950;2022-11-23T07:17:14;99964.63;;;11.87;100.00
20630;BME280;17386;43.846;25.950;2022-11-23T07:19:40;99954.69;;;11.90;100.00
20630;BME280;17386;43.846;25.950;2022-11-23T07:22:05;99959.06;;;11.91;100.00
20630;BME280;17386;43.846;25.950;2022-11-23T07:24:30;99965.69;;;12.00;100.00
20630;BME280;17386;43.846;25.950;2022-11-23T07:26:56;99963.31;;;12.11;100.00
20630;BME280;17386;43.846;25.950;2022-11-23T07:29:21;99961.41;;;12.13;100.00
20630;BME280;17386;43.846;25.950;2022-11-23T07:31:47;99958.28;;;12.22;100.00
20630;BME280;17386;43.846;25.950;2022-11-23T07:34:12;99964.97;;;12.29;100.00
20630;BME280;17386;43.846;25.950;2022-11-23T07:36:37;99970.22;;;12.31;100.00
20630;BME280;17386;43.846;25.950;2022-11-23T07:39:03;99973.41;;;12.38;100.00
20630;BME280;17386;43.846;25.950;2022-11-23T07:41:28;99979.50;;;12.40;100.00
20630;BME280;17386;43.846;25.950;2022-11-23T07:43:54;99981.47;;;12.36;100.00
20630;BME280;17386;43.846;25.950;2022-11-23T07:46:19;99983.09;;;12.39;100.00
20630;BME280;17386;43.846;25.950;2022-11-23T07:48:45;99990.75;;;12.45;100.00
20630;BME280;17386;43.846;25.950;2022-11-23T07:51:10;99987.28;;;12.27;100.00
20630;BME280;17386;43.846;25.950;2022-11-23T07:53:36;99992.38;;;12.31;100.00
20630;BME280;17386;43.846;25.950;2022-11-23T07:56:01;99995.72;;;12.35;100.00
20630;BME280;17386;43.846;25.950;2022-11-23T07:58:27;99986.53;;;12.41;100.00
20630;BME280;17386;43.846;25.950;2022-11-23T08:00:53;99991.63;;;12.45;100.00
20630;BME280;17386;43.846;25.950;2022-11-23T08:03:19;99984.06;;;12.38;100.00
20630;BME280;17386;43.846;25.950;2022-11-23T08:05:45;100010.88;;;12.50;100.00
20630;BME280;17386;43.846;25.950;2022-11-23T08:08:10;100016.78;;;12.55;100.00
20630;BME280;17386;43.846;25.950;2022-11-23T08:10:36;100037.44;;;12.52;100.00
20630;BME280;17386;43.846;25.950;2022-11-23T08:13:04;100020.31;;;12.40;100.00
20630;BME280;17386;43.846;25.950;2022-11-23T08:15:30;100038.53;;;12.48;100.00
20630;BME280;17386;43.846;25.950;2022-11-23T08:17:57;100023.41;;;12.48;100.00
20630;BME280;17386;43.846;25.950;2022-11-23T08:20:23;100025.91;;;12.51;100.00
20630;BME280;17386;43.846;25.950;2022-11-23T08:22:49;100034.53;;;12.56;100.00
20630;BME280;17386;43.846;25.950;2022-11-23T08:25:14;100030.91;;;12.57;100.00
20630;BME280;17386;43.846;25.950;2022-11-23T08:27:40;100026.69;;;12.53;100.00
20630;BME280;17386;43.846;25.950;2022-11-23T08:30:06;100031.16;;;12.53;100.00
20630;BME280;17386;43.846;25.950;2022-11-23T08:32:31;100027.88;;;12.48;100.00
20630;BME280;17386;43.846;25.950;2022-11-23T08:34:57;100023.50;;;12.47;100.00
20630;BME280;17386;43.846;25.950;2022-11-23T08:37:22;100023.59;;;12.45;100.00
20630;BME280;17386;43.846;25.950;2022-11-23T08:39:47;100031.34;;;12.50;100.00
20630;BME280;17386;43.846;25.950;2022-11-23T08:42:13;100018.03;;;12.50;100.00
20630;BME280;17386;43.846;25.950;2022-11-23T08:44:38;100019.34;;;12.41;100.00
20630;BME280;17386;43.846;25.950;2022-11-23T08:47:03;100010.25;;;12.45;100.00
20630;BME280;17386;43.846;25.950;2022-11-23T08:49:29;100003.13;;;12.46;100.00
20630;BME280;17386;43.846;25.950;2022-11-23T08:51:54;100018.69;;;12.53;100.00
20630;BME280;17386;43.846;25.950;2022-11-23T08:54:20;100015.25;;;12.51;100.00
20630;BME280;17386;43.846;25.950;2022-11-23T08:56:48;100008.13;;;12.52;100.00
20630;BME280;17386;43.846;25.950;2022-11-23T08:59:14;100010.38;;;12.59;100.00
20630;BME280;17386;43.846;25.950;2022-11-23T09:01:41;99998.50;;;12.65;100.00
20630;BME280;17386;43.846;25.950;2022-11-23T09:04:06;99998.84;;;12.75;100.00
20630;BME280;17386;43.846;25.950;2022-11-23T09:06:33;99996.44;;;12.70;100.00
20630;BME280;17386;43.846;25.950;2022-11-23T09:08:58;99991.78;;;12.74;100.00
20630;BME280;17386;43.846;25.950;2022-11-23T09:11:24;99988.09;;;12.76;100.00
20630;BME280;17386;43.846;25.950;2022-11-23T09:13:50;99980.28;;;12.73;100.00
20630;BME280;17386;43.846;25.950;2022-11-23T09:16:16;99982.59;;;12.79;100.00
20630;BME280;17386;43.846;25.950;2022-11-23T09:18:41;99983.22;;;12.84;100.00
20630;BME280;17386;43.846;25.950;2022-11-23T09:21:07;99974.06;;;12.88;100.00
20630;BME280;17386;43.846;25.950;2022-11-23T09:23:32;99986.09;;;12.96;100.00
20630;BME280;17386;43.846;25.950;2022-11-23T09:25:59;99969.00;;;13.00;100.00
20630;BME280;17386;43.846;25.950;2022-11-23T09:28:24;99965.22;;;13.04;100.00
20630;BME280;17386;43.846;25.950;2022-11-23T09:30:52;99965.69;;;13.10;100.00
20630;BME280;17386;43.846;25.950;2022-11-23T09:33:17;99954.59;;;13.18;100.00
20630;BME280;17386;43.846;25.950;2022-11-23T09:35:43;99954.06;;;13.27;100.00
20630;BME280;17386;43.846;25.950;2022-11-23T09:38:08;99947.19;;;13.23;100.00
20630;BME280;17386;43.846;25.950;2022-11-23T09:40:38;99958.44;;;13.28;100.00
20630;BME280;17386;43.846;25.950;2022-11-23T09:45:50;99964.84;;;13.26;100.00
20630;BME280;17386;43.846;25.950;2022-11-23T09:50:51;99961.97;;;13.29;100.00
20630;BME280;17386;43.846;25.950;2022-11-23T09:54:09;99952.16;;;13.29;100.00
20630;BME280;17386;43.846;25.950;2022-11-23T09:56:20;99970.56;;;13.34;100.00
20630;BME280;17386;43.846;25.950;2022-11-23T09:58:54;99964.53;;;13.30;100.00
20630;BME280;17386;43.846;25.950;2022-11-23T10:01:20;99957.09;;;13.21;100.00
20630;BME280;17386;43.846;25.950;2022-11-23T10:03:47;99959.50;;;13.26;100.00
20630;BME280;17386;43.846;25.950;2022-11-23T10:06:16;99949.41;;;13.31;100.00
20630;BME280;17386;43.846;25.950;2022-11-23T10:19:54;99933.53;;;13.44;100.00
20630;BME280;17386;43.846;25.950;2022-11-23T10:22:40;99926.31;;;13.46;100.00
20630;BME280;17386;43.846;25.950;2022-11-23T10:25:15;99932.66;;;13.43;100.00
20630;BME280;17386;43.846;25.950;2022-11-23T10:27:42;99936.13;;;13.45;100.00
20630;BME280;17386;43.846;25.950;2022-11-23T10:30:13;99946.22;;;13.54;100.00
20630;BME280;17386;43.846;25.950;2022-11-23T10:35:27;99943.75;;;13.65;100.00
20630;BME280;17386;43.846;25.950;2022-11-23T10:38:13;99949.00;;;13.67;100.00
20630;BME280;17386;43.846;25.950;2022-11-23T10:40:44;99947.31;;;13.66;100.00
20630;BME280;17386;43.846;25.950;2022-11-23T10:43:17;99936.91;;;13.61;100.00
20630;BME280;17386;43.846;25.950;2022-11-23T10:45:45;99940.53;;;13.60;100.00
20630;BME280;17386;43.846;25.950;2022-11-23T10:48:10;99936.91;;;13.61;100.00
20630;BME280;17386;43.846;25.950;2022-11-23T10:50:37;99941.06;;;13.65;100.00
20630;BME280;17386;43.846;25.950;2022-11-23T10:55:46;99929.00;;;13.74;100.00
20630;BME280;17386;43.846;25.950;2022-11-23T10:58:32;99925.06;;;13.65;100.00
20630;BME280;17386;43.846;25.950;2022-11-23T11:01:08;99925.47;;;13.59;100.00
20630;BME280;17386;43.846;25.950;2022-11-23T11:03:36;99901.03;;;13.51;100.00
20630;BME280;17386;43.846;25.950;2022-11-23T11:06:02;99916.19;;;13.51;100.00
20630;BME280;17386;43.846;25.950;2022-11-23T11:08:30;99921.63;;;13.49;100.00
20630;BME280;17386;43.846;25.950;2022-11-23T11:11:09;99924.97;;;13.53;100.00
20630;BME280;17386;43.846;25.950;2022-11-23T11:13:44;99927.91;;;13.48;100.00
20630;BME280;17386;43.846;25.950;2022-11-23T11:16:29;99925.25;;;13.62;100.00
20630;BME280;17386;43.846;25.950;2022-11-23T11:18:56;99913.84;;;13.75;100.00
20630;BME280;17386;43.846;25.950;2022-11-23T11:21:40;99907.81;;;13.85;100.00
20630;BME280;17386;43.846;25.950;2022-11-23T11:24:14;99908.78;;;13.84;100.00
20630;BME280;17386;43.846;25.950;2022-11-23T11:27:01;99909.47;;;13.88;100.00
20630;BME280;17386;43.846;25.950;2022-11-23T11:29:30;99925.09;;;13.94;100.00
20630;BME280;17386;43.846;25.950;2022-11-23T11:37:31;99929.47;;;13.66;100.00
20630;BME280;17386;43.846;25.950;2022-11-23T11:40:31;99937.75;;;13.76;100.00
20630;BME280;17386;43.846;25.950;2022-11-23T11:43:04;99931.00;;;13.85;100.00
20630;BME280;17386;43.846;25.950;2022-11-23T11:45:36;99929.38;;;13.68;100.00
20630;BME280;17386;43.846;25.950;2022-11-23T11:50:37;99928.78;;;13.49;100.00
20630;BME280;17386;43.846;25.950;2022-11-23T11:53:11;99931.63;;;13.15;100.00
20630;BME280;17386;43.846;25.950;2022-11-23T11:55:54;99925.09;;;13.21;100.00
20630;BME280;17386;43.846;25.950;2022-11-23T11:58:23;99919.31;;;13.43;100.00
20630;BME280;17386;43.846;25.950;2022-11-23T12:00:55;99913.53;;;13.51;100.00
20630;BME280;17386;43.846;25.950;2022-11-23T12:06:06;99926.31;;;13.60;100.00
20630;BME280;17386;43.846;25.950;2022-11-23T12:08:54;99925.22;;;13.34;100.00
20630;BME280;17386;43.846;25.950;2022-11-23T12:11:20;99912.00;;;13.47;100.00
20630;BME280;17386;43.846;25.950;2022-11-23T12:13:47;99927.28;;;13.59;100.00
20630;BME280;17386;43.846;25.950;2022-11-23T12:19:21;99948.25;;;13.79;100.00
20630;BME280;17386;43.846;25.950;2022-11-23T12:47:12;99983.22;;;12.84;100.00
20630;BME280;17386;43.846;25.950;2022-11-23T12:49:47;99986.47;;;12.58;100.00
20630;BME280;17386;43.846;25.950;2022-11-23T13:00:20;99990.50;;;12.65;100.00
20630;BME280;17386;43.846;25.950;2022-11-23T13:10:53;99986.38;;;12.59;100.00
20630;BME280;17386;43.846;25.950;2022-11-23T13:13:33;99988.63;;;12.51;100.00
20630;BME280;17386;43.846;25.950;2022-11-23T13:21:35;99986.44;;;12.26;100.00
20630;BME280;17386;43.846;25.950;2022-11-23T13:24:02;99986.19;;;12.31;100.00
20630;BME280;17386;43.846;25.950;2022-11-23T13:26:28;99976.69;;;12.43;100.00
20630;BME280;17386;43.846;25.950;2022-11-23T13:28:56;99981.47;;;12.52;100.00
20630;BME280;17386;43.846;25.950;2022-11-23T13:31:27;99975.63;;;12.61;100.00
20630;BME280;17386;43.846;25.950;2022-11-23T13:33:55;99971.97;;;12.64;100.00
20630;BME280;17386;43.846;25.950;2022-11-23T13:39:00;99949.34;;;12.71;100.00
20630;BME280;17386;43.846;25.950;2022-11-23T13:46:42;99975.66;;;12.77;100.00
20630;BME280;17386;43.846;25.950;2022-11-23T13:49:35;99983.13;;;12.70;100.00
20630;BME280;17386;43.846;25.950;2022-11-23T13:55:17;99966.00;;;12.74;100.00
20630;BME280;17386;43.846;25.950;2022-11-23T13:58:35;99951.72;;;12.75;100.00
20630;BME280;17386;43.846;25.950;2022-11-23T14:00:58;99977.94;;;12.83;100.00
20630;BME280;17386;43.846;25.950;2022-11-23T14:06:34;100010.09;;;12.48;100.00
20630;BME280;17386;43.846;25.950;2022-11-23T14:14:25;100029.00;;;12.59;100.00
20630;BME280;17386;43.846;25.950;2022-11-23T14:20:04;100044.38;;;12.54;100.00
20630;BME280;17386;43.846;25.950;2022-11-23T14:36:45;100024.25;;;12.33;100.00
20630;BME280;17386;43.846;25.950;2022-11-23T14:42:03;100028.22;;;12.42;100.00
20630;BME280;17386;43.846;25.950;2022-11-23T14:44:35;100026.59;;;12.39;100.00
20630;BME280;17386;43.846;25.950;2022-11-23T14:47:07;100026.72;;;12.20;100.00